Time;durP1;ratioP1;P1;durP2;ratioP2;P2;SDS_P1;SDS_P2;PMS_P1;PMS_P2;Temp;Humidity;BMP_temperature;BMP_pressure;BME280_temperature;BME280_humidity;BME280_pressure;Samples;Min_cycle;Max_cycle;Signal;HPM_P1;HPM_P2
2023/06/12 00:02:17;;;;;;;33.47;16.73;;;;;;;21.36;68.22;100052.44;5034988;28;20091;-88
2023/06/12 00:04:44;;;;;;;34.80;16.25;;;;;;;21.32;68.50;100035.59;5034811;28;20461;-89
2023/06/12 00:07:10;;;;;;;21.65;10.77;;;;;;;21.46;68.27;100053.75;5034467;28;20120;-87
2023/06/12 00:09:36;;;;;;;16.60;6.65;;;;;;;21.46;68.55;100039.22;5052168;28;20523;-86
2023/06/12 00:12:02;;;;;;;14.18;5.13;;;;;;;21.52;68.69;100044.69;5052143;28;20033;-87
2023/06/12 00:14:28;;;;;;;16.45;5.63;;;;;;;21.44;68.84;100041.28;5053151;28;20025;-87
2023/06/12 00:16:53;;;;;;;13.70;5.70;;;;;;;21.44;69.23;100049.50;5052916;28;20060;-88
2023/06/12 00:19:20;;;;;;;7.70;5.20;;;;;;;21.28;69.68;100031.63;5053290;28;20485;-88
2023/06/12 00:21:46;;;;;;;11.68;5.75;;;;;;;21.26;69.85;100028.25;5055340;28;20033;-87
2023/06/12 00:24:11;;;;;;;8.43;4.90;;;;;;;21.28;70.17;100045.31;5055617;28;20025;-87
2023/06/12 00:26:37;;;;;;;15.25;5.75;;;;;;;21.14;70.75;100032.63;5061170;28;20031;-90
2023/06/12 00:29:02;;;;;;;12.15;5.63;;;;;;;21.20;71.14;100045.47;5076959;28;20029;-90
2023/06/12 00:31:29;;;;;;;13.65;6.70;;;;;;;21.14;71.44;100051.78;5072315;28;20110;-88
2023/06/12 00:33:54;;;;;;;11.88;5.45;;;;;;;21.03;72.40;100039.53;5053182;28;20044;-89
2023/06/12 00:36:20;;;;;;;11.27;5.80;;;;;;;20.99;73.06;100056.53;5052593;28;20033;-88
2023/06/12 00:38:47;;;;;;;20.70;6.25;;;;;;;20.97;73.88;100069.59;5052734;28;20051;-87
2023/06/12 00:41:12;;;;;;;11.93;6.18;;;;;;;20.87;74.12;100047.25;5034927;28;20030;-88
2023/06/12 00:43:38;;;;;;;21.23;7.63;;;;;;;20.96;74.15;100059.69;5053570;28;20024;-89
2023/06/12 00:46:04;;;;;;;16.88;7.28;;;;;;;20.92;74.33;100050.22;5032662;28;20037;-88
2023/06/12 00:48:31;;;;;;;12.88;5.65;;;;;;;20.89;74.15;100056.09;5033233;28;20033;-88
2023/06/12 00:50:57;;;;;;;13.40;6.07;;;;;;;20.77;74.20;100057.72;5032516;28;20108;-88
2023/06/12 00:53:23;;;;;;;17.05;6.45;;;;;;;20.76;73.98;100062.38;5032273;28;20025;-88
2023/06/12 00:55:49;;;;;;;9.02;5.38;;;;;;;20.65;73.93;100057.47;5032344;28;20033;-88
2023/06/12 00:58:14;;;;;;;11.45;5.30;;;;;;;20.74;73.61;100074.53;5033074;28;20398;-88
2023/06/12 01:00:40;;;;;;;15.02;5.68;;;;;;;20.79;73.40;100082.97;5032055;28;20478;-88
2023/06/12 01:03:12;;;;;;;13.05;5.50;;;;;;;20.76;72.44;100086.13;5013407;28;20029;-87
2023/06/12 01:05:42;;;;;;;14.73;5.05;;;;;;;20.73;71.92;100083.81;5032103;28;20033;-88
2023/06/12 01:08:41;;;;;;;9.05;4.68;;;;;;;20.77;70.88;100087.78;5031904;28;20029;-87
2023/06/12 01:11:12;;;;;;;8.00;4.40;;;;;;;20.68;70.89;100069.88;5032817;28;20034;-87
2023/06/12 01:13:38;;;;;;;9.85;5.03;;;;;;;20.73;70.59;100084.66;5034500;28;20112;-87
2023/06/12 01:16:04;;;;;;;9.93;5.03;;;;;;;20.60;69.58;100057.25;5039666;28;20060;-87
2023/06/12 01:18:32;;;;;;;9.43;4.70;;;;;;;20.70;68.68;100067.81;5052386;28;20009;-86
2023/06/12 01:21:01;;;;;;;9.77;4.03;;;;;;;20.75;68.22;100076.22;5040159;28;20033;-87
2023/06/12 01:23:38;;;;;;;5.95;3.60;;;;;;;20.85;68.31;100096.69;5056022;28;20030;-90
2023/06/12 01:26:10;;;;;;;9.23;4.20;;;;;;;20.90;68.08;100094.16;5036057;28;20041;-88
2023/06/12 01:29:12;;;;;;;11.77;3.72;;;;;;;20.94;68.33;100097.34;5036479;28;20033;-88
2023/06/12 01:31:59;;;;;;;5.93;3.77;;;;;;;20.92;68.06;100088.47;5020320;28;20168;-88
2023/06/12 01:34:28;;;;;;;11.00;4.72;;;;;;;20.93;68.32;100101.09;4997782;28;20466;-89
2023/06/12 01:37:05;;;;;;;11.30;4.25;;;;;;;20.87;68.33;100088.25;5025620;28;20642;-86
2023/06/12 01:39:37;;;;;;;14.15;3.67;;;;;;;21.01;67.52;100104.50;5011319;28;20034;-87
2023/06/12 01:42:04;;;;;;;6.10;3.30;;;;;;;21.00;67.20;100107.47;5008949;28;20049;-87
2023/06/12 01:44:32;;;;;;;6.05;4.28;;;;;;;20.89;67.15;100083.41;5014715;28;20030;-88
2023/06/12 01:46:57;;;;;;;10.70;3.88;;;;;;;20.95;66.62;100099.00;5007992;28;20046;-87
2023/06/12 01:49:23;;;;;;;6.70;4.20;;;;;;;20.96;66.36;100095.22;5008639;28;20028;-88
2023/06/12 01:51:48;;;;;;;7.47;4.00;;;;;;;21.02;66.19;100108.09;5008681;28;20165;-88
2023/06/12 01:54:15;;;;;;;10.20;4.25;;;;;;;21.04;66.14;100105.97;5009439;28;20030;-87
2023/06/12 01:56:42;;;;;;;13.68;4.80;;;;;;;20.96;66.06;100095.22;5018548;28;20034;-88
2023/06/12 01:59:08;;;;;;;11.00;4.47;;;;;;;20.88;66.39;100098.16;5050059;28;20035;-87
2023/06/12 02:01:33;;;;;;;20.88;4.30;;;;;;;20.82;66.15;100091.63;5065108;28;20041;-89
2023/06/12 02:03:59;;;;;;;8.23;3.88;;;;;;;20.95;66.37;100112.69;5050820;28;20029;-88
2023/06/12 02:06:25;;;;;;;8.93;5.22;;;;;;;20.96;66.40;100114.38;5050401;28;20037;-89
2023/06/12 02:08:50;;;;;;;13.32;4.65;;;;;;;21.01;66.43;100111.84;5050180;28;20053;-87
2023/06/12 02:11:16;;;;;;;7.63;3.20;;;;;;;20.93;66.28;100103.84;5051223;28;20480;-88
2023/06/12 02:13:41;;;;;;;10.77;4.38;;;;;;;20.99;66.56;100105.75;5051798;28;20040;-87
2023/06/12 02:16:08;;;;;;;10.32;4.82;;;;;;;20.99;66.27;100105.75;5054147;28;20037;-89
2023/06/12 02:18:33;;;;;;;9.40;3.80;;;;;;;21.01;66.38;100109.13;5034994;28;20385;-88
2023/06/12 02:20:59;;;;;;;10.00;4.43;;;;;;;21.07;66.58;100121.97;5068218;28;20091;-90
2023/06/12 02:23:25;;;;;;;11.40;4.47;;;;;;;21.13;66.18;100126.66;5075062;28;20029;-90
2023/06/12 02:25:50;;;;;;;14.70;4.35;;;;;;;20.92;66.37;100104.88;5060354;28;20520;-88
2023/06/12 02:28:15;;;;;;;12.15;4.07;;;;;;;21.03;66.61;100126.19;5050563;28;20489;-89
2023/06/12 02:30:41;;;;;;;23.90;4.45;;;;;;;21.07;66.67;100119.25;5050110;28;20028;-88
2023/06/12 02:33:09;;;;;;;8.82;4.30;;;;;;;21.11;66.15;100126.03;5034283;28;20024;-89
2023/06/12 02:35:38;;;;;;;7.72;3.15;;;;;;;21.06;66.26;100117.56;5050670;28;20118;-90
2023/06/12 02:38:03;;;;;;;15.48;4.80;;;;;;;21.19;65.95;100128.59;5050822;28;20029;-88
2023/06/12 02:40:29;;;;;;;17.73;6.80;;;;;;;21.19;65.88;100136.81;5050168;28;20500;-91
2023/06/12 02:42:54;;;;;;;13.57;3.95;;;;;;;21.12;66.06;100127.72;5032083;28;20036;-89
2023/06/12 02:45:22;;;;;;;11.82;4.07;;;;;;;21.11;65.96;100128.75;5049450;28;20036;-88
2023/06/12 02:47:47;;;;;;;8.93;4.15;;;;;;;21.23;65.87;100153.63;5031518;28;20129;-89
2023/06/12 02:50:12;;;;;;;17.45;4.78;;;;;;;21.26;65.61;100151.31;5050001;28;20064;-88
2023/06/12 02:52:40;;;;;;;11.25;4.03;;;;;;;21.15;65.68;100135.53;5049876;28;20025;-89
2023/06/12 02:55:06;;;;;;;10.35;4.40;;;;;;;21.22;65.87;100139.13;5049367;28;20040;-88
2023/06/12 02:57:32;;;;;;;10.70;4.15;;;;;;;21.31;65.54;100154.31;5049539;28;20025;-89
2023/06/12 02:59:58;;;;;;;13.38;3.85;;;;;;;21.23;65.43;100132.59;5049289;28;20447;-89
2023/06/12 03:02:23;;;;;;;12.85;3.80;;;;;;;21.26;65.65;100155.94;5031519;28;20036;-89
2023/06/12 03:04:49;;;;;;;9.57;3.65;;;;;;;21.22;65.73;100141.88;5049560;28;20039;-87
2023/06/12 03:07:16;;;;;;;5.60;4.10;;;;;;;21.26;65.69;100158.69;5027022;28;20025;-80
2023/06/12 03:09:42;;;;;;;6.80;3.95;;;;;;;21.26;66.00;100151.31;5037446;28;20056;-80
2023/06/12 03:12:09;;;;;;;13.00;4.88;;;;;;;21.31;65.90;100154.31;5039961;28;20068;-80
2023/06/12 03:14:36;;;;;;;9.55;3.72;;;;;;;21.39;65.76;100156.84;5038473;28;20476;-80
2023/06/12 03:17:02;;;;;;;15.50;4.32;;;;;;;21.49;65.72;100160.03;5042678;28;20034;-79
2023/06/12 03:19:27;;;;;;;8.23;4.50;;;;;;;21.39;65.76;100154.13;5059755;28;20083;-84
2023/06/12 03:21:53;;;;;;;13.23;4.32;;;;;;;21.58;65.56;100160.69;5061362;28;20044;-84
2023/06/12 03:24:20;;;;;;;12.60;4.85;;;;;;;21.72;65.20;100167.88;5049937;28;20037;-84
2023/06/12 03:26:46;;;;;;;12.93;4.88;;;;;;;21.64;65.63;100155.22;5052526;28;20700;-83
2023/06/12 03:29:11;;;;;;;17.30;6.55;;;;;;;21.69;66.10;100169.13;5053033;28;20040;-85
2023/06/12 03:31:37;;;;;;;18.88;5.00;;;;;;;21.68;66.53;100151.00;5052869;28;20025;-81
2023/06/12 03:34:03;;;;;;;11.50;4.90;;;;;;;21.65;66.82;100156.06;5054144;28;20018;-82
2023/06/12 03:36:28;;;;;;;13.48;5.95;;;;;;;21.59;67.32;100157.72;5051639;28;20887;-82
2023/06/12 03:38:54;;;;;;;13.48;6.75;;;;;;;21.57;67.80;100151.63;5052672;28;20070;-80
2023/06/12 03:41:22;;;;;;;15.63;7.28;;;;;;;21.48;68.25;100155.63;5053744;28;20028;-88
2023/06/12 03:43:48;;;;;;;20.80;6.28;;;;;;;21.53;68.48;100185.94;5038078;28;20475;-86
2023/06/12 03:46:14;;;;;;;23.17;8.07;;;;;;;21.30;68.90;100163.56;5054624;28;20412;-92
2023/06/12 03:48:40;;;;;;;21.40;8.55;;;;;;;21.30;69.87;100179.13;5054178;28;20021;-84
2023/06/12 03:51:05;;;;;;;37.05;9.07;;;;;;;21.12;70.19;100163.28;5052892;28;20028;-85
2023/06/12 03:53:31;;;;;;;21.88;8.48;;;;;;;21.05;71.30;100182.34;5052448;28;20036;-84
2023/06/12 03:55:57;;;;;;;24.45;11.20;;;;;;;20.86;72.15;100160.38;5054053;28;20075;-86
2023/06/12 03:58:22;;;;;;;50.22;13.48;;;;;;;20.96;72.65;100171.78;5053221;28;20028;-85
2023/06/12 04:00:48;;;;;;;26.25;11.18;;;;;;;20.94;73.30;100179.34;5048091;28;20505;-82
2023/06/12 04:03:18;;;;;;;24.02;11.65;;;;;;;20.85;74.10;100173.22;5058678;28;20515;-84
2023/06/12 04:05:45;;;;;;;19.70;11.68;;;;;;;20.76;74.60;100165.38;5056900;28;20037;-83
2023/06/12 04:08:10;;;;;;;40.60;12.73;;;;;;;20.75;75.45;100169.16;5055305;28;20127;-87
2023/06/12 04:10:36;;;;;;;30.05;13.40;;;;;;;20.73;75.91;100168.53;5056190;28;20059;-87
2023/06/12 04:13:01;;;;;;;22.65;13.80;;;;;;;20.76;76.46;100177.16;5056388;28;20005;-86
2023/06/12 04:15:29;;;;;;;30.17;14.55;;;;;;;20.74;76.60;100178.38;5055198;28;20037;-89
2023/06/12 04:17:55;;;;;;;30.35;14.07;;;;;;;20.67;77.01;100183.00;5071154;28;20447;-86
2023/06/12 04:20:20;;;;;;;23.25;12.70;;;;;;;20.61;77.34;100170.94;5053109;28;20021;-86
2023/06/12 04:22:47;;;;;;;22.40;14.25;;;;;;;20.68;77.67;100180.03;5054282;28;20488;-86
2023/06/12 04:25:13;;;;;;;25.25;14.73;;;;;;;20.74;77.78;100189.31;5052612;28;20078;-84
2023/06/12 04:27:41;;;;;;;29.90;14.60;;;;;;;20.76;78.21;100192.72;5058853;28;20112;-83
2023/06/12 04:30:07;;;;;;;28.38;13.77;;;;;;;20.69;78.62;100183.63;5033970;28;20043;-85
2023/06/12 04:32:33;;;;;;;31.80;15.15;;;;;;;20.79;78.84;100200.53;5052272;28;20040;-86
2023/06/12 04:34:58;;;;;;;31.75;16.00;;;;;;;20.95;78.45;100198.28;5052213;28;20025;-85
2023/06/12 04:37:25;;;;;;;29.85;15.73;;;;;;;20.96;77.96;100207.34;5051819;28;20082;-85
2023/06/12 04:39:52;;;;;;;33.70;16.40;;;;;;;21.06;77.81;100216.03;5046887;28;20033;-83
2023/06/12 04:42:17;;;;;;;24.15;14.73;;;;;;;21.10;77.36;100201.75;5040038;28;20112;-86
2023/06/12 04:44:46;;;;;;;62.28;15.98;;;;;;;21.18;77.43;100203.50;5053168;28;20786;-88
2023/06/12 04:47:12;;;;;;;29.10;13.23;;;;;;;21.24;77.56;100208.13;5052365;28;20496;-89
2023/06/12 04:49:43;;;;;;;53.13;14.48;;;;;;;21.38;76.81;100214.50;5052500;28;20017;-88
2023/06/12 04:52:08;;;;;;;25.58;12.15;;;;;;;21.44;75.48;100203.56;5055820;28;20076;-85
2023/06/12 04:54:41;;;;;;;31.30;14.32;;;;;;;21.50;75.22;100213.69;5052689;28;20021;-90
2023/06/12 04:57:16;;;;;;;27.67;13.90;;;;;;;21.61;75.19;100220.47;5056673;28;20039;-88
2023/06/12 04:59:44;;;;;;;29.15;13.90;;;;;;;21.72;74.68;100233.56;5053102;28;20378;-86
2023/06/12 05:02:10;;;;;;;25.92;14.48;;;;;;;21.75;74.19;100222.19;5053431;28;20049;-87
2023/06/12 05:04:37;;;;;;;38.15;14.95;;;;;;;21.76;74.35;100214.84;5055447;28;20025;-89
2023/06/12 05:07:04;;;;;;;32.45;12.93;;;;;;;21.92;72.21;100222.69;5035384;28;20098;-82
2023/06/12 05:09:30;;;;;;;20.08;12.02;;;;;;;21.94;71.95;100226.06;5056810;28;20024;-88
2023/06/12 05:11:56;;;;;;;26.75;12.27;;;;;;;21.89;72.04;100223.13;5069652;28;20025;-91
2023/06/12 05:14:21;;;;;;;38.30;12.30;;;;;;;21.86;71.94;100212.53;5050221;28;20048;-87
2023/06/12 05:16:47;;;;;;;16.95;11.05;;;;;;;21.98;71.99;100227.34;5052271;28;20108;-83
2023/06/12 05:19:13;;;;;;;31.58;12.65;;;;;;;21.95;71.79;100211.34;5053729;28;20032;-85
2023/06/12 05:21:41;;;;;;;32.00;13.43;;;;;;;22.00;71.59;100206.06;5051920;28;20029;-84
2023/06/12 05:24:07;;;;;;;36.03;11.23;;;;;;;22.18;71.04;100233.69;5020218;28;20111;-83
2023/06/12 05:26:33;;;;;;;53.63;13.25;;;;;;;22.17;70.71;100226.50;5043865;28;20022;-83
2023/06/12 05:28:58;;;;;;;28.35;14.02;;;;;;;22.22;71.05;100224.00;5037847;28;20029;-86
2023/06/12 05:31:24;;;;;;;35.13;12.35;;;;;;;22.26;70.29;100229.91;5048864;28;20102;-81
2023/06/12 05:33:49;;;;;;;29.33;11.25;;;;;;;22.29;70.36;100224.00;5036372;28;20724;-83
2023/06/12 05:36:16;;;;;;;18.45;10.55;;;;;;;22.21;70.22;100205.88;5030915;28;20041;-88
2023/06/12 05:38:46;;;;;;;26.40;11.15;;;;;;;22.26;70.06;100208.00;5035429;28;20037;-88
2023/06/12 05:41:12;;;;;;;37.30;11.63;;;;;;;22.31;69.98;100217.25;5053656;28;20021;-89
2023/06/12 05:43:39;;;;;;;32.25;8.75;;;;;;;22.30;69.57;100207.34;5055113;28;20032;-87
2023/06/12 05:46:04;;;;;;;24.63;9.60;;;;;;;22.25;69.35;100207.13;5055119;28;20029;-89
2023/06/12 05:48:30;;;;;;;38.42;10.05;;;;;;;22.26;68.72;100218.94;5056537;28;20054;-90
2023/06/12 05:50:56;;;;;;;31.00;10.10;;;;;;;22.28;68.58;100220.41;5048945;28;20060;-93
2023/06/12 05:53:21;;;;;;;26.63;9.65;;;;;;;22.25;68.97;100204.41;5050806;28;20020;-90
2023/06/12 05:55:47;;;;;;;39.85;10.90;;;;;;;22.36;69.13;100219.34;5075020;28;20048;-84
2023/06/12 05:58:12;;;;;;;28.13;9.20;;;;;;;22.53;68.94;100232.44;5075464;28;20013;-91
2023/06/12 06:00:38;;;;;;;45.92;10.57;;;;;;;22.62;68.23;100213.88;5074983;28;20115;-83
2023/06/12 06:03:04;;;;;;;24.92;9.45;;;;;;;22.76;67.50;100224.63;5062328;28;20029;-85
2023/06/12 06:05:30;;;;;;;27.65;8.73;;;;;;;22.70;67.44;100199.97;5062149;28;20056;-84
2023/06/12 06:07:55;;;;;;;28.42;9.70;;;;;;;22.87;67.04;100216.81;5060064;28;20025;-82
2023/06/12 06:10:21;;;;;;;30.27;8.80;;;;;;;22.93;66.91;100218.69;5047068;28;20029;-89
2023/06/12 06:12:46;;;;;;;18.17;9.13;;;;;;;22.90;65.83;100221.88;5044451;28;20489;-85
2023/06/12 06:15:12;;;;;;;20.85;10.13;;;;;;;22.72;65.61;100215.13;5030934;28;20072;-84
2023/06/12 06:17:38;;;;;;;26.63;9.43;;;;;;;22.64;65.42;100209.00;5041950;28;20024;-85
2023/06/12 06:20:05;;;;;;;28.60;8.35;;;;;;;22.46;65.13;100204.19;5039788;28;20021;-84
2023/06/12 06:22:31;;;;;;;28.02;9.35;;;;;;;22.34;65.43;100205.88;5049047;28;20496;-84
2023/06/12 06:24:57;;;;;;;25.80;9.20;;;;;;;22.22;66.11;100183.75;5033433;28;20040;-84
2023/06/12 06:27:22;;;;;;;28.52;8.50;;;;;;;22.41;65.88;100212.22;5052052;28;20029;-84
2023/06/12 06:29:48;;;;;;;22.38;8.40;;;;;;;22.61;66.05;100221.25;5052639;28;20056;-83
2023/06/12 06:32:13;;;;;;;23.33;8.60;;;;;;;22.63;65.77;100201.81;5044174;28;20025;-90
2023/06/12 06:34:39;;;;;;;46.95;10.25;;;;;;;22.75;65.13;100209.22;5052280;28;20040;-91
2023/06/12 06:37:04;;;;;;;66.60;18.98;;;;;;;22.82;65.03;100213.84;5037020;28;20025;-93
2023/06/12 06:39:30;;;;;;;23.77;8.38;;;;;;;22.83;64.64;100212.81;5049701;28;20096;-90
2023/06/12 06:41:55;;;;;;;25.40;8.43;;;;;;;22.91;64.31;100223.53;5053093;28;20052;-89
2023/06/12 06:44:21;;;;;;;26.55;9.00;;;;;;;22.99;63.94;100215.09;5042387;28;20044;-92
2023/06/12 06:46:46;;;;;;;17.35;8.18;;;;;;;23.21;63.67;100236.53;5013492;28;20331;-88
2023/06/12 06:49:12;;;;;;;24.52;8.35;;;;;;;23.47;63.00;100252.09;5032950;28;20436;-88
2023/06/12 06:51:38;;;;;;;26.00;8.80;;;;;;;23.53;62.83;100245.75;5030957;28;20685;-89
2023/06/12 06:54:03;;;;;;;20.38;7.78;;;;;;;23.70;61.94;100249.66;5040162;28;20029;-86
2023/06/12 06:56:30;;;;;;;22.38;8.15;;;;;;;23.82;61.49;100253.41;5039400;28;20025;-90
2023/06/12 06:58:55;;;;;;;47.33;9.88;;;;;;;23.89;61.57;100258.84;5035075;28;20159;-89
2023/06/12 07:01:21;;;;;;;20.02;7.82;;;;;;;24.02;60.04;100271.69;5038210;28;20084;-90
2023/06/12 07:03:46;;;;;;;15.77;8.10;;;;;;;23.76;60.25;100267.16;5035617;28;20113;-90
2023/06/12 07:06:12;;;;;;;18.60;8.02;;;;;;;23.87;59.93;100269.22;5041373;28;20037;-92
2023/06/12 07:08:37;;;;;;;15.38;7.25;;;;;;;23.83;60.03;100263.34;5045002;28;20025;-90
2023/06/12 07:11:03;;;;;;;30.13;8.90;;;;;;;23.84;59.64;100259.53;5035197;28;20029;-90
2023/06/12 07:13:28;;;;;;;43.50;11.85;;;;;;;23.80;59.33;100252.78;5016954;28;20068;-90
2023/06/12 07:15:54;;;;;;;36.55;11.25;;;;;;;24.06;59.43;100262.78;5034909;28;20057;-90
2023/06/12 07:18:19;;;;;;;16.52;8.18;;;;;;;24.11;59.02;100267.63;5034343;28;20026;-87
2023/06/12 07:20:45;;;;;;;32.92;10.45;;;;;;;24.28;58.77;100277.03;5032524;28;20170;-82
2023/06/12 07:23:10;;;;;;;18.48;9.23;;;;;;;24.29;57.72;100273.22;5033204;28;20116;-81
2023/06/12 07:25:36;;;;;;;19.85;8.32;;;;;;;24.15;58.20;100280.72;5032474;28;20482;-78
2023/06/12 07:28:01;;;;;;;57.30;13.82;;;;;;;24.14;58.62;100280.94;5032999;28;20489;-79
2023/06/12 07:30:27;;;;;;;34.80;9.48;;;;;;;24.11;58.42;100265.72;5032760;28;20441;-84
2023/06/12 07:32:52;;;;;;;42.42;8.85;;;;;;;24.17;58.39;100264.00;5032869;28;20032;-83
2023/06/12 07:35:18;;;;;;;26.20;10.27;;;;;;;24.42;58.57;100278.63;5014481;28;20033;-80
2023/06/12 07:37:45;;;;;;;24.58;8.98;;;;;;;24.70;57.43;100284.53;5032364;28;20026;-83
2023/06/12 07:40:11;;;;;;;33.38;13.13;;;;;;;24.75;57.01;100290.19;5032393;28;20029;-81
2023/06/12 07:42:37;;;;;;;19.75;8.25;;;;;;;24.63;55.86;100281.00;5014226;28;20030;-82
2023/06/12 07:45:03;;;;;;;22.38;8.18;;;;;;;24.55;56.21;100289.53;5032452;28;20037;-80
2023/06/12 07:47:29;;;;;;;15.52;8.00;;;;;;;24.57;56.48;100265.38;5032701;28;20021;-80
2023/06/12 07:49:54;;;;;;;28.52;10.65;;;;;;;24.85;55.79;100284.22;5014983;28;20481;-80
2023/06/12 07:52:20;;;;;;;34.45;10.63;;;;;;;24.84;55.87;100282.53;5018178;28;20029;-82
2023/06/12 07:54:47;;;;;;;24.50;10.02;;;;;;;24.90;55.41;100282.47;5052494;28;20128;-83
2023/06/12 07:57:13;;;;;;;29.55;10.32;;;;;;;24.94;55.17;100265.50;5052923;28;20037;-81
2023/06/12 07:59:39;;;;;;;44.85;11.90;;;;;;;25.18;54.56;100279.22;5034516;28;20031;-80
2023/06/12 08:02:04;;;;;;;21.63;8.20;;;;;;;25.24;54.19;100291.22;5051807;28;20053;-81
2023/06/12 08:04:30;;;;;;;40.72;11.65;;;;;;;25.24;54.24;100291.22;5053319;28;20020;-81
2023/06/12 08:06:56;;;;;;;26.25;8.18;;;;;;;25.32;54.18;100286.25;5032564;28;20039;-80
2023/06/12 08:09:21;;;;;;;20.52;9.75;;;;;;;25.27;53.92;100310.03;5050408;28;20036;-81
2023/06/12 08:11:46;;;;;;;24.85;7.75;;;;;;;25.07;54.47;100287.38;5049410;28;20024;-81
2023/06/12 08:14:12;;;;;;;50.25;11.82;;;;;;;25.07;54.58;100290.16;5050046;28;20107;-78
2023/06/12 08:16:38;;;;;;;38.75;11.02;;;;;;;24.78;55.09;100289.75;5050445;28;20654;-82
2023/06/12 08:19:04;;;;;;;48.72;15.07;;;;;;;24.68;55.90;100283.06;5050651;28;20878;-80
2023/06/12 08:21:30;;;;;;;19.08;10.07;;;;;;;24.61;55.64;100272.13;5050219;28;20050;-79
2023/06/12 08:23:55;;;;;;;22.25;9.68;;;;;;;24.87;55.40;100285.66;5058673;28;20496;-93
2023/06/12 08:26:21;;;;;;;21.75;8.48;;;;;;;25.01;55.22;100260.78;5046878;28;20389;-93
2023/06/12 08:28:50;;;;;;;52.58;12.43;;;;;;;25.09;54.15;100241.22;5054783;28;20029;-93
2023/06/12 08:31:16;;;;;;;22.33;10.15;;;;;;;25.48;53.95;100287.56;5036338;28;20099;-92
2023/06/12 08:33:41;;;;;;;11.60;8.18;;;;;;;25.57;53.36;100291.72;5036441;28;20037;-95
2023/06/12 08:36:07;;;;;;;31.17;9.25;;;;;;;25.53;53.26;100282.25;5053101;28;20032;-93
2023/06/12 08:38:32;;;;;;;44.72;9.93;;;;;;;25.48;53.18;100293.06;5037382;28;20036;-94
2023/06/12 08:41:01;;;;;;;26.05;10.95;;;;;;;25.51;53.19;100287.13;5054371;28;20043;-94
2023/06/12 08:43:29;;;;;;;52.75;14.50;;;;;;;25.32;51.97;100263.38;5037107;28;20110;-94
2023/06/12 08:45:56;;;;;;;20.40;10.18;;;;;;;25.39;52.46;100275.16;5054769;28;20036;-93
2023/06/12 08:48:26;;;;;;;53.40;14.18;;;;;;;25.31;52.64;100289.25;5058006;28;20477;-92
2023/06/12 08:50:52;;;;;;;39.78;16.13;;;;;;;25.15;53.38;100267.81;5045158;28;20029;-94
2023/06/12 08:53:18;;;;;;;20.33;10.90;;;;;;;25.02;53.51;100257.78;5065652;28;20029;-92
2023/06/12 08:55:44;;;;;;;35.70;10.50;;;;;;;25.13;53.49;100258.97;5057554;28;20060;-94
2023/06/12 08:58:10;;;;;;;48.97;11.32;;;;;;;24.89;53.30;100269.75;5059380;28;20057;-95
2023/06/12 09:00:37;;;;;;;50.53;10.45;;;;;;;24.92;53.55;100272.06;5075533;28;20063;-90
2023/06/12 09:03:06;;;;;;;23.58;8.30;;;;;;;24.56;54.60;100268.34;5057416;28;20033;-91
2023/06/12 09:05:38;;;;;;;37.15;11.75;;;;;;;24.76;54.67;100291.03;5036973;28;20503;-93
2023/06/12 09:08:05;;;;;;;17.67;8.90;;;;;;;24.64;54.17;100265.34;5053874;28;20033;-93
2023/06/12 09:10:35;;;;;;;22.73;10.38;;;;;;;24.63;54.50;100263.63;5036918;28;20020;-92
2023/06/12 09:13:09;;;;;;;18.52;9.68;;;;;;;24.48;54.82;100272.22;5058065;28;20029;-93
2023/06/12 09:15:37;;;;;;;43.72;11.38;;;;;;;24.49;55.47;100290.41;5040177;28;20620;-92
2023/06/12 09:18:07;;;;;;;25.90;8.60;;;;;;;24.26;55.48;100268.16;5056185;28;20103;-93
2023/06/12 09:20:33;;;;;;;34.72;9.82;;;;;;;24.31;55.92;100251.88;5052177;28;20033;-94
2023/06/12 09:23:04;;;;;;;30.13;9.63;;;;;;;24.35;55.51;100250.34;5054437;28;20033;-93
2023/06/12 09:25:41;;;;;;;35.65;9.68;;;;;;;24.57;55.25;100270.88;5051280;28;20037;-93
2023/06/12 09:28:08;;;;;;;43.08;12.25;;;;;;;24.96;54.91;100274.38;5035411;28;20467;-93
2023/06/12 09:30:39;;;;;;;38.97;10.23;;;;;;;24.93;54.25;100267.41;5054631;28;20048;-94
2023/06/12 09:33:05;;;;;;;30.38;8.98;;;;;;;25.01;54.02;100258.88;5034947;28;20032;-92
2023/06/12 09:35:31;;;;;;;17.92;10.15;;;;;;;25.24;54.03;100280.22;5044159;28;20132;-94
2023/06/12 09:37:58;;;;;;;26.83;10.25;;;;;;;25.32;53.79;100275.25;5038411;28;20060;-93
2023/06/12 09:40:23;;;;;;;25.13;10.95;;;;;;;25.35;53.15;100274.78;5035028;28;20029;-88
2023/06/12 09:42:49;;;;;;;20.73;9.43;;;;;;;25.42;53.13;100271.94;5051847;28;20028;-87
2023/06/12 09:45:20;;;;;;;23.23;9.60;;;;;;;25.49;53.05;100258.97;5052450;28;20052;-87
2023/06/12 09:47:51;;;;;;;31.65;10.13;;;;;;;25.66;52.69;100270.19;5056311;28;20028;-87
2023/06/12 09:50:18;;;;;;;46.97;9.88;;;;;;;25.70;52.84;100261.25;5056378;28;20039;-88
2023/06/12 09:52:45;;;;;;;16.80;9.45;;;;;;;25.97;52.08;100268.09;5059237;28;20036;-88
2023/06/12 09:55:13;;;;;;;17.13;8.02;;;;;;;25.70;51.04;100250.22;5052809;28;20043;-88
2023/06/12 09:57:42;;;;;;;31.65;9.00;;;;;;;25.78;51.59;100266.44;5045800;28;20119;-87
2023/06/12 10:00:11;;;;;;;39.17;9.82;;;;;;;25.68;52.33;100263.41;5032209;28;20078;-88
2023/06/12 10:02:43;;;;;;;49.63;12.75;;;;;;;25.73;52.00;100249.78;5050784;28;20017;-87
2023/06/12 10:05:28;;;;;;;30.48;9.60;;;;;;;25.59;51.28;100241.91;5050882;28;20039;-87
2023/06/12 10:07:59;;;;;;;22.77;7.90;;;;;;;25.20;52.20;100246.78;5034131;28;20036;-87
2023/06/12 10:10:25;;;;;;;17.05;8.38;;;;;;;25.19;52.66;100247.03;5053772;28;20033;-89
2023/06/12 10:12:52;;;;;;;20.38;8.02;;;;;;;25.27;52.89;100269.59;5032878;28;20029;-88
2023/06/12 10:15:17;;;;;;;16.92;8.25;;;;;;;25.17;52.88;100269.25;5035569;28;20037;-89
2023/06/12 10:17:43;;;;;;;33.10;10.57;;;;;;;25.09;53.44;100263.22;5051563;28;20032;-88
2023/06/12 10:20:10;;;;;;;43.10;11.50;;;;;;;25.13;54.17;100272.72;5032605;28;20039;-88
2023/06/12 10:22:37;;;;;;;20.05;9.80;;;;;;;25.13;53.36;100273.56;5033440;28;20412;-87
2023/06/12 10:25:05;;;;;;;16.80;9.65;;;;;;;25.24;53.55;100275.56;5053097;28;20036;-87
2023/06/12 10:27:31;;;;;;;26.77;10.43;;;;;;;25.32;53.43;100252.38;5057771;28;20032;-90
2023/06/12 10:29:59;;;;;;;27.02;10.02;;;;;;;25.58;53.13;100263.09;5055758;28;20029;-88
2023/06/12 10:32:30;;;;;;;31.92;8.68;;;;;;;25.75;51.60;100264.13;5057774;28;20032;-89
2023/06/12 10:34:55;;;;;;;20.85;9.13;;;;;;;25.54;51.65;100247.25;5080022;28;20024;-89
2023/06/12 10:37:25;;;;;;;29.90;10.90;;;;;;;25.52;51.74;100249.41;5069800;28;20036;-86
2023/06/12 10:40:09;;;;;;;28.95;9.57;;;;;;;25.38;51.13;100265.25;5067509;28;20013;-86
2023/06/12 10:42:53;;;;;;;14.98;8.25;;;;;;;25.11;51.31;100258.31;5069638;28;20471;-86
2023/06/12 10:45:38;;;;;;;28.17;8.95;;;;;;;24.88;51.80;100235.09;5110769;22;20056;-87
2023/06/12 10:48:04;;;;;;;18.40;7.80;;;;;;;25.09;52.02;100249.47;5078156;28;20028;-87
2023/06/12 10:50:31;;;;;;;24.80;7.85;;;;;;;25.26;51.87;100248.63;5090244;28;20024;-87
2023/06/12 10:52:59;;;;;;;26.52;7.85;;;;;;;25.40;51.51;100249.31;5089456;28;20013;-88
2023/06/12 10:55:34;;;;;;;29.75;8.07;;;;;;;25.43;51.36;100240.59;5077781;28;20064;-87
2023/06/12 10:58:03;;;;;;;23.13;8.15;;;;;;;25.48;51.00;100246.25;5075768;28;20032;-85
2023/06/12 11:00:36;;;;;;;20.42;6.55;;;;;;;25.29;50.24;100252.81;5076087;28;20043;-86
2023/06/12 11:03:13;;;;;;;29.63;8.30;;;;;;;25.41;50.14;100242.75;5076253;28;20017;-87
2023/06/12 11:05:44;;;;;;;25.60;7.30;;;;;;;25.58;49.87;100245.72;5074403;28;20062;-86
2023/06/12 11:08:10;;;;;;;20.92;8.40;;;;;;;25.66;49.88;100249.00;5074076;28;20716;-86
2023/06/12 11:10:37;;;;;;;35.00;8.45;;;;;;;25.71;49.90;100259.34;5074668;28;20112;-86
2023/06/12 11:13:04;;;;;;;16.27;6.82;;;;;;;25.51;50.45;100234.81;5075170;28;20028;-86
2023/06/12 11:15:32;;;;;;;14.23;7.57;;;;;;;25.61;50.12;100250.78;5073709;28;20032;-86